createdAt,value
2018-08-31T00:00:27.501Z,23.7
2018-08-31T00:01:17.362Z,23.7
2018-08-31T00:02:06.605Z,23.7
2018-08-31T00:02:57.503Z,23.7
2018-08-31T00:03:47.748Z,23.7
2018-08-31T00:04:37.317Z,23.7
2018-08-31T00:05:27.120Z,23.7
2018-08-31T00:06:17.172Z,23.7
2018-08-31T00:07:07.780Z,23.7
2018-08-31T00:07:57.828Z,23.7
2018-08-31T00:08:47.076Z,23.7
2018-08-31T00:09:38.488Z,23.7
2018-08-31T00:10:28.476Z,23.7
2018-08-31T00:11:18.352Z,23.7
2018-08-31T00:12:07.298Z,23.7
2018-08-31T00:31:33.333Z,23.7
2018-08-31T00:32:22.061Z,23.7
2018-08-31T00:33:11.888Z,23.7
2018-08-31T00:34:02.789Z,23.8
2018-08-31T00:34:51.961Z,23.7
2018-08-31T00:35:42.628Z,23.8
2018-08-31T00:36:32.670Z,23.8
2018-08-31T00:37:22.182Z,23.7
2018-08-31T00:38:12.785Z,23.8
2018-08-31T00:39:02.870Z,23.8
2018-08-31T00:39:52.383Z,23.8
2018-08-31T00:40:42.445Z,23.8
2018-08-31T00:41:33.030Z,23.7
2018-08-31T00:42:22.870Z,23.7
2018-08-31T00:43:12.897Z,23.8
2018-08-31T00:44:03.287Z,23.8
2018-08-31T00:44:52.720Z,23.8
2018-08-31T00:45:43.902Z,23.8
2018-08-31T00:46:33.975Z,23.8
2018-08-31T00:47:23.204Z,23.8
2018-08-31T00:48:13.881Z,23.8
2018-08-31T00:49:03.672Z,23.8
2018-08-31T00:49:53.452Z,23.8
2018-08-31T00:50:43.814Z,23.8
2018-08-31T00:51:33.514Z,23.8
2018-08-31T00:52:24.158Z,23.8
2018-08-31T00:53:13.966Z,23.8
2018-08-31T00:54:04.021Z,23.8
2018-08-31T00:54:54.066Z,23.8
2018-08-31T00:55:44.129Z,23.8
2018-08-31T00:56:33.689Z,23.8
2018-08-31T00:57:23.981Z,23.8
2018-08-31T00:58:13.793Z,23.8
2018-08-31T00:59:04.732Z,23.8
2018-08-31T00:59:53.866Z,23.8
2018-08-31T01:00:44.814Z,23.8
2018-08-31T01:01:34.547Z,23.8
2018-08-31T01:02:24.354Z,23.8
2018-08-31T01:03:14.222Z,23.8
2018-08-31T01:04:04.803Z,23.8
2018-08-31T01:04:54.864Z,23.8
2018-08-31T01:05:44.018Z,23.8
2018-08-31T01:06:34.917Z,23.8
2018-08-31T01:07:24.420Z,23.8
2018-08-31T01:08:14.518Z,23.7
2018-08-31T01:09:05.451Z,23.8
2018-08-31T01:09:55.220Z,23.8
2018-08-31T01:10:44.961Z,23.8
2018-08-31T01:11:34.785Z,23.8
2018-08-31T01:12:25.931Z,23.8
2018-08-31T01:13:15.769Z,23.8
2018-08-31T01:14:05.312Z,23.8
2018-08-31T01:14:55.715Z,23.8
2018-08-31T01:15:45.406Z,23.8
2018-08-31T01:16:35.775Z,23.8
2018-08-31T01:17:25.528Z,23.8
2018-08-31T01:18:15.861Z,23.8
2018-08-31T01:19:05.938Z,23.8
2018-08-31T01:19:55.713Z,23.8
2018-08-31T01:20:46.063Z,23.8
2018-08-31T01:21:35.837Z,23.8
2018-08-31T01:22:26.172Z,23.8
2018-08-31T01:23:16.533Z,23.8
2018-08-31T01:24:05.770Z,23.8
2018-08-31T01:24:56.440Z,23.7
2018-08-31T01:25:46.480Z,23.8
2018-08-31T01:26:35.950Z,23.8
2018-08-31T01:27:26.832Z,23.8
2018-08-31T01:28:16.202Z,23.8
2018-08-31T01:29:06.439Z,23.8
2018-08-31T01:29:56.790Z,23.8
2018-08-31T01:30:46.517Z,23.8
2018-08-31T01:31:36.897Z,23.8
2018-08-31T01:32:26.387Z,23.8
2018-08-31T01:33:17.272Z,23.8
2018-08-31T01:34:07.655Z,23.8
2018-08-31T01:34:57.164Z,23.8
2018-08-31T01:35:47.004Z,23.8
2018-08-31T01:36:37.328Z,23.8
2018-08-31T01:37:27.336Z,23.8
2018-08-31T01:38:17.729Z,23.8
2018-08-31T01:39:07.539Z,23.8
2018-08-31T01:39:57.312Z,23.8
2018-08-31T01:40:46.756Z,23.8
2018-08-31T01:41:36.856Z,23.8
2018-08-31T01:42:27.471Z,23.8
2018-08-31T01:43:17.807Z,23.8
2018-08-31T01:44:08.458Z,23.8
2018-08-31T01:44:57.926Z,23.8
2018-08-31T01:45:47.413Z,23.8
2018-08-31T01:46:38.099Z,23.8
2018-08-31T01:47:27.828Z,23.8
2018-08-31T01:48:17.903Z,23.8
2018-08-31T01:49:08.573Z,23.8
2018-08-31T01:49:57.414Z,23.8
2018-08-31T01:50:47.503Z,23.8
2018-08-31T01:51:38.496Z,23.8
2018-08-31T01:52:28.775Z,23.8
2018-08-31T01:53:18.576Z,23.8
2018-08-31T01:54:09.234Z,23.8
2018-08-31T01:54:58.418Z,23.8
2018-08-31T01:55:48.737Z,23.8
2018-08-31T01:56:38.517Z,23.8
2018-08-31T01:57:28.619Z,23.8
2018-08-31T01:58:18.928Z,23.8
2018-08-31T01:59:09.023Z,23.8
2018-08-31T01:59:58.815Z,23.8
2018-08-31T02:00:48.845Z,23.8
2018-08-31T02:01:39.200Z,23.8
2018-08-31T02:02:29.018Z,23.8
2018-08-31T02:03:19.323Z,23.8
2018-08-31T02:04:10.504Z,23.8
2018-08-31T02:04:58.915Z,23.8
2018-08-31T02:05:49.780Z,23.8
2018-08-31T02:06:39.864Z,23.8
2018-08-31T02:07:29.677Z,23.8
2018-08-31T02:08:19.405Z,23.8
2018-08-31T02:09:09.792Z,23.8
2018-08-31T02:10:00.212Z,23.8
2018-08-31T02:10:48.794Z,23.8
2018-08-31T02:11:39.427Z,23.8
2018-08-31T02:12:29.202Z,23.8
2018-08-31T02:13:19.857Z,23.8
2018-08-31T02:14:09.897Z,23.8
2018-08-31T02:15:00.515Z,23.8
2018-08-31T02:15:50.782Z,23.8
2018-08-31T02:16:40.354Z,23.8
2018-08-31T02:17:29.863Z,23.8
2018-08-31T02:18:20.479Z,23.8
2018-08-31T02:19:09.449Z,23.8
2018-08-31T02:20:00.694Z,23.8
2018-08-31T02:20:50.442Z,23.8
2018-08-31T02:21:40.889Z,23.8
2018-08-31T02:22:30.340Z,23.8
2018-08-31T02:23:20.724Z,23.8
2018-08-31T02:24:10.394Z,23.8
2018-08-31T02:25:00.164Z,23.8
2018-08-31T02:25:51.621Z,23.8
2018-08-31T02:26:41.443Z,23.8
2018-08-31T02:27:31.183Z,23.8
2018-08-31T02:28:20.984Z,23.8
2018-08-31T02:29:11.024Z,23.8
2018-08-31T02:30:01.651Z,23.8
2018-08-31T02:30:50.320Z,23.8
2018-08-31T02:31:41.527Z,23.8
2018-08-31T02:32:31.286Z,23.8
2018-08-31T02:33:21.358Z,23.8
2018-08-31T02:34:12.008Z,23.8
2018-08-31T02:35:01.754Z,23.8
2018-08-31T02:35:51.275Z,23.8
2018-08-31T02:36:42.198Z,23.8
2018-08-31T02:37:32.001Z,23.8
2018-08-31T02:38:22.310Z,23.8
2018-08-31T02:39:12.779Z,23.8
2018-08-31T02:40:02.177Z,23.8
2018-08-31T02:40:52.241Z,23.8
2018-08-31T02:41:41.699Z,23.8
2018-08-31T02:42:32.080Z,23.8
2018-08-31T02:43:21.828Z,23.8
2018-08-31T02:44:12.515Z,23.8
2018-08-31T02:45:02.811Z,23.8
2018-08-31T02:45:52.589Z,23.8
2018-08-31T02:46:42.374Z,23.7
2018-08-31T02:47:32.700Z,23.8
2018-08-31T02:48:22.635Z,23.8
2018-08-31T02:49:12.600Z,23.8
2018-08-31T02:50:02.650Z,23.8
2018-08-31T02:50:53.210Z,23.8
2018-08-31T02:51:42.753Z,23.8
2018-08-31T02:52:32.858Z,23.8
2018-08-31T02:53:22.880Z,23.8
2018-08-31T02:54:13.297Z,23.8
2018-08-31T02:55:03.584Z,23.8
2018-08-31T02:55:52.557Z,23.8
2018-08-31T02:56:43.177Z,23.8
2018-08-31T02:57:33.797Z,23.8
2018-08-31T02:58:23.591Z,23.8
2018-08-31T02:59:13.720Z,23.8
2018-08-31T03:00:03.704Z,23.8
2018-08-31T03:00:54.000Z,23.8
2018-08-31T03:01:43.313Z,23.8
2018-08-31T03:02:33.579Z,23.8
2018-08-31T03:03:23.090Z,23.8
2018-08-31T03:04:14.009Z,23.8
2018-08-31T03:05:04.382Z,23.8
2018-08-31T03:05:54.149Z,23.8
2018-08-31T03:06:43.902Z,23.8
2018-08-31T03:07:33.407Z,23.8
2018-08-31T03:08:23.835Z,23.7
2018-08-31T03:09:14.416Z,23.7
2018-08-31T03:10:04.537Z,23.7
2018-08-31T03:10:54.272Z,23.8
2018-08-31T03:11:46.172Z,23.8
2018-08-31T03:12:34.691Z,23.7
2018-08-31T03:13:24.226Z,23.8
2018-08-31T03:14:14.831Z,23.8
2018-08-31T03:15:04.834Z,23.8
2018-08-31T03:15:55.213Z,23.8
2018-08-31T03:16:45.248Z,23.8
2018-08-31T03:17:35.348Z,23.8
2018-08-31T03:18:24.619Z,23.8
2018-08-31T03:19:15.340Z,23.8
2018-08-31T03:20:04.847Z,23.8
2018-08-31T03:20:55.308Z,23.8
2018-08-31T03:21:45.648Z,23.8
2018-08-31T03:22:35.413Z,23.8
2018-08-31T03:23:25.788Z,23.8
2018-08-31T03:24:15.556Z,23.8
2018-08-31T03:25:05.362Z,23.8
2018-08-31T03:25:55.769Z,23.8
2018-08-31T03:26:45.732Z,23.8
2018-08-31T03:27:35.538Z,23.8
2018-08-31T03:28:26.198Z,23.8
2018-08-31T03:29:15.957Z,23.8
2018-08-31T03:30:05.775Z,23.7
2018-08-31T03:30:55.840Z,23.8
2018-08-31T03:31:45.352Z,23.8
2018-08-31T03:32:36.074Z,23.8
2018-08-31T03:33:26.309Z,23.8
2018-08-31T03:34:16.318Z,23.8
2018-08-31T03:35:06.238Z,23.8
2018-08-31T03:35:56.398Z,23.7
2018-08-31T03:36:46.494Z,23.7
2018-08-31T03:37:36.056Z,23.8
2018-08-31T03:38:26.951Z,23.8
2018-08-31T03:39:17.012Z,23.8
2018-08-31T03:40:06.494Z,23.8
2018-08-31T03:40:56.804Z,23.8
2018-08-31T03:41:46.653Z,23.8
2018-08-31T03:42:36.089Z,23.8
2018-08-31T03:43:26.823Z,23.7
2018-08-31T03:44:16.232Z,23.8
2018-08-31T03:45:06.891Z,23.8
2018-08-31T03:45:57.991Z,23.8
2018-08-31T03:46:46.981Z,23.8
2018-08-31T03:47:36.790Z,23.8
2018-08-31T03:48:27.449Z,23.8
2018-08-31T03:49:17.199Z,23.8
2018-08-31T03:50:07.543Z,23.8
2018-08-31T03:50:57.292Z,23.8
2018-08-31T03:51:47.995Z,23.8
2018-08-31T03:52:37.776Z,23.8
2018-08-31T03:53:27.230Z,23.8
2018-08-31T03:54:17.848Z,23.8
2018-08-31T03:55:07.943Z,23.8
2018-08-31T03:55:58.253Z,23.8
2018-08-31T03:56:47.753Z,23.8
2018-08-31T03:57:38.085Z,23.8
2018-08-31T03:58:27.578Z,23.8
2018-08-31T03:59:18.213Z,23.8
2018-08-31T04:00:08.315Z,23.8
2018-08-31T04:00:58.723Z,23.8
2018-08-31T04:01:48.442Z,23.8
2018-08-31T04:02:38.200Z,23.8
2018-08-31T04:03:28.629Z,23.7
2018-08-31T04:04:18.639Z,23.7
2018-08-31T04:05:08.720Z,23.8
2018-08-31T04:05:58.794Z,23.7
2018-08-31T04:06:48.517Z,23.7
2018-08-31T04:07:38.841Z,23.8
2018-08-31T04:08:28.945Z,23.8
2018-08-31T04:09:18.486Z,23.8
2018-08-31T04:10:09.121Z,23.8
2018-08-31T04:10:59.124Z,23.8
2018-08-31T04:11:49.466Z,23.8
2018-08-31T04:12:39.203Z,23.8
2018-08-31T04:13:28.503Z,23.8
2018-08-31T04:14:19.719Z,23.8
2018-08-31T04:15:11.032Z,23.8
2018-08-31T04:15:59.245Z,23.8
2018-08-31T04:16:48.944Z,23.8
2018-08-31T04:17:38.817Z,23.8
2018-08-31T04:18:29.729Z,23.8
2018-08-31T04:19:20.092Z,23.8
2018-08-31T04:20:10.103Z,23.8
2018-08-31T04:21:00.184Z,23.8
2018-08-31T04:21:49.397Z,23.8
2018-08-31T04:22:39.815Z,23.8
2018-08-31T04:23:29.579Z,23.8
2018-08-31T04:24:20.229Z,23.8
2018-08-31T04:25:10.029Z,23.8
2018-08-31T04:25:59.263Z,23.8
2018-08-31T04:26:49.514Z,23.8
2018-08-31T04:27:40.153Z,23.8
2018-08-31T04:28:29.838Z,23.8
2018-08-31T04:29:20.408Z,23.8
2018-08-31T04:30:10.180Z,23.8
2018-08-31T04:31:00.009Z,23.8
2018-08-31T04:31:50.157Z,23.8
2018-08-31T04:32:40.271Z,23.8
2018-08-31T04:33:30.328Z,23.8
2018-08-31T04:34:20.738Z,23.8
2018-08-31T04:35:10.467Z,23.8
2018-08-31T04:36:00.491Z,23.8
2018-08-31T04:36:51.089Z,23.8
2018-08-31T04:37:40.346Z,23.8
2018-08-31T04:38:31.485Z,23.8
2018-08-31T04:39:20.771Z,23.8
2018-08-31T04:40:10.571Z,23.8
2018-08-31T04:41:00.068Z,23.8
2018-08-31T04:41:51.533Z,23.6
2018-08-31T04:42:41.882Z,23.6
2018-08-31T05:00:18.423Z,22.8
2018-08-31T05:01:09.475Z,22.8
2018-08-31T05:02:00.055Z,22.8
2018-08-31T05:02:50.362Z,22.9
2018-08-31T05:03:39.982Z,22.9
2018-08-31T05:04:29.236Z,22.9
2018-08-31T05:05:19.911Z,23
2018-08-31T05:06:10.115Z,23.1
2018-08-31T05:07:00.686Z,23.1
2018-08-31T05:07:50.488Z,23.1
2018-08-31T05:08:38.989Z,23.1
2018-08-31T05:09:30.375Z,23.1
2018-08-31T05:10:20.398Z,23.1
2018-08-31T05:11:10.163Z,23.1
2018-08-31T05:12:00.539Z,23.1
2018-08-31T05:12:51.137Z,23
2018-08-31T05:13:40.658Z,23
2018-08-31T05:14:30.261Z,23
2018-08-31T05:15:21.149Z,22.9
2018-08-31T05:16:13.049Z,22.9
2018-08-31T05:17:01.243Z,22.9
2018-08-31T05:17:51.313Z,22.9
2018-08-31T05:18:41.598Z,22.9
2018-08-31T05:19:30.781Z,22.8
2018-08-31T05:20:21.983Z,22.8
2018-08-31T05:21:11.308Z,22.8
2018-08-31T05:22:02.054Z,22.8
2018-08-31T05:22:52.635Z,22.8
2018-08-31T05:23:42.184Z,22.8
2018-08-31T05:24:31.490Z,22.8
2018-08-31T05:25:21.928Z,22.8
2018-08-31T05:26:12.205Z,22.8
2018-08-31T05:27:01.670Z,22.8
2018-08-31T05:27:51.992Z,22.8
2018-08-31T05:28:41.894Z,22.8
2018-08-31T05:29:32.213Z,22.8
2018-08-31T05:30:22.077Z,22.8
2018-08-31T05:31:12.612Z,22.8
2018-08-31T05:32:02.595Z,22.8
2018-08-31T05:32:52.757Z,22.8
2018-08-31T05:33:42.259Z,22.8
2018-08-31T05:34:31.204Z,22.8
2018-08-31T05:35:21.294Z,22.7
2018-08-31T05:36:12.155Z,22.7
2018-08-31T05:37:01.469Z,22.7
2018-08-31T05:37:52.024Z,22.7
2018-08-31T05:38:42.666Z,22.7
2018-08-31T05:39:32.181Z,22.7
2018-08-31T05:40:22.242Z,22.8
2018-08-31T05:41:12.484Z,22.8
2018-08-31T05:42:03.346Z,22.8
2018-08-31T05:42:52.380Z,22.8
2018-08-31T05:43:43.196Z,22.8
2018-08-31T05:44:33.017Z,22.8
2018-08-31T05:45:22.561Z,22.8
2018-08-31T05:46:12.867Z,22.8
2018-08-31T05:47:02.968Z,22.8
2018-08-31T05:47:51.892Z,22.8
2018-08-31T05:48:44.205Z,22.8
2018-08-31T05:49:33.112Z,22.8
2018-08-31T05:50:23.773Z,22.8
2018-08-31T05:51:13.804Z,22.7
2018-08-31T05:52:03.597Z,22.7
2018-08-31T05:52:53.050Z,22.7
2018-08-31T05:53:44.738Z,22.7
2018-08-31T05:54:33.816Z,22.7
2018-08-31T05:55:23.896Z,22.7
2018-08-31T05:56:13.896Z,22.7
2018-08-31T05:57:04.272Z,22.7
2018-08-31T05:57:54.092Z,22.7
2018-08-31T05:58:43.304Z,22.7
2018-08-31T05:59:34.728Z,22.7
2018-08-31T06:00:24.031Z,22.7
2018-08-31T06:01:14.908Z,22.7
2018-08-31T06:02:05.010Z,22.7
2018-08-31T06:02:55.049Z,22.7
2018-08-31T06:03:44.805Z,22.7
2018-08-31T06:04:35.132Z,22.7
2018-08-31T06:05:24.912Z,22.7
2018-08-31T06:06:14.128Z,22.7
2018-08-31T06:07:05.023Z,22.7
2018-08-31T06:07:54.300Z,22.7
2018-08-31T06:08:44.893Z,22.7
2018-08-31T06:09:34.912Z,22.7
2018-08-31T06:10:25.097Z,22.7
2018-08-31T06:11:15.010Z,22.8
2018-08-31T06:12:07.373Z,22.8
2018-08-31T06:12:54.687Z,22.8
2018-08-31T06:13:45.269Z,22.8
2018-08-31T06:14:35.348Z,22.8
2018-08-31T06:15:25.112Z,22.8
2018-08-31T06:16:15.779Z,22.8
2018-08-31T06:17:05.549Z,22.9
2018-08-31T06:17:55.612Z,22.8
2018-08-31T06:18:45.729Z,22.8
2018-08-31T06:19:36.022Z,22.8
2018-08-31T06:20:25.799Z,22.8
2018-08-31T06:21:16.947Z,22.8
2018-08-31T06:22:06.023Z,22.8
2018-08-31T06:22:55.454Z,22.8
2018-08-31T06:23:46.064Z,22.8
2018-08-31T06:24:36.386Z,22.8
2018-08-31T06:25:26.435Z,22.8
2018-08-31T06:26:16.229Z,22.8
2018-08-31T06:27:06.175Z,22.9
2018-08-31T06:27:55.316Z,22.9
2018-08-31T06:28:46.018Z,22.9
2018-08-31T06:29:36.037Z,22.9
2018-08-31T06:30:25.578Z,22.9
2018-08-31T06:31:16.399Z,22.9
2018-08-31T06:32:06.528Z,23
2018-08-31T06:32:57.076Z,23
2018-08-31T06:33:46.581Z,23
2018-08-31T06:34:36.432Z,23
2018-08-31T06:35:26.476Z,23.1
2018-08-31T06:36:17.080Z,23.1
2018-08-31T06:37:06.431Z,23.1
2018-08-31T06:37:56.854Z,23.1
2018-08-31T06:38:46.186Z,23.1
2018-08-31T06:39:37.311Z,23.1
2018-08-31T06:40:27.046Z,23.1
2018-08-31T06:41:17.378Z,23.1
2018-08-31T06:42:07.455Z,23.1
2018-08-31T06:42:58.086Z,23.1
2018-08-31T06:43:47.632Z,23.2
2018-08-31T06:44:37.713Z,23.1
2018-08-31T06:45:27.978Z,23.2
2018-08-31T06:46:18.090Z,23.2
2018-08-31T06:47:08.132Z,23.2
2018-08-31T06:47:57.579Z,23.2
2018-08-31T06:48:47.758Z,23.2
2018-08-31T06:49:38.064Z,23.3
2018-08-31T06:50:28.652Z,23.3
2018-08-31T06:51:17.640Z,23.3
2018-08-31T06:52:08.608Z,23.3
2018-08-31T06:52:58.585Z,23.3
2018-08-31T06:53:47.540Z,23.3
2018-08-31T06:54:38.447Z,23.3
2018-08-31T06:55:27.794Z,23.3
2018-08-31T06:56:18.842Z,23.3
2018-08-31T06:57:09.208Z,23.3
2018-08-31T06:57:58.959Z,23.3
2018-08-31T06:58:49.034Z,23.3
2018-08-31T06:59:38.555Z,23.3
2018-08-31T07:00:29.445Z,23.3
2018-08-31T07:01:18.972Z,23.3
2018-08-31T07:02:09.549Z,23.4
2018-08-31T07:02:59.217Z,23.4
2018-08-31T07:03:50.511Z,23.4
2018-08-31T07:04:38.667Z,23.4
2018-08-31T07:05:28.734Z,23.4
2018-08-31T07:06:19.599Z,23.4
2018-08-31T07:07:08.444Z,23.4
2018-08-31T07:08:00.335Z,23.4
2018-08-31T07:08:50.242Z,23.4
2018-08-31T07:09:41.212Z,23.4
2018-08-31T07:10:29.094Z,23.4
2018-08-31T07:11:20.013Z,23.4
2018-08-31T07:12:08.802Z,23.4
2018-08-31T07:12:59.356Z,23.4
2018-08-31T07:13:50.421Z,23.4
2018-08-31T07:14:40.246Z,23.4
2018-08-31T07:15:30.038Z,23.4
2018-08-31T07:16:20.931Z,23.4
2018-08-31T07:17:10.195Z,23.4
2018-08-31T07:17:59.721Z,23.4
2018-08-31T07:18:50.593Z,23.4
2018-08-31T07:19:41.464Z,23.4
2018-08-31T07:20:29.888Z,23.4
2018-08-31T07:21:20.329Z,23.4
2018-08-31T07:22:10.281Z,23.4
2018-08-31T07:23:00.204Z,23.4
2018-08-31T07:23:51.275Z,23.4
2018-08-31T07:24:40.479Z,23.5
2018-08-31T07:25:30.067Z,23.4
2018-08-31T07:26:21.576Z,23.4
2018-08-31T07:27:10.128Z,23.4
2018-08-31T07:28:01.032Z,23.4
2018-08-31T07:28:51.375Z,23.4
2018-08-31T07:29:41.739Z,23.5
2018-08-31T07:30:30.695Z,23.5
2018-08-31T07:31:22.140Z,23.5
2018-08-31T07:32:11.428Z,23.5
2018-08-31T07:33:01.165Z,23.5
2018-08-31T07:33:50.972Z,23.5
2018-08-31T07:34:42.182Z,23.5
2018-08-31T07:35:31.100Z,23.5
2018-08-31T07:36:23.595Z,23.5
2018-08-31T07:37:12.082Z,23.5
2018-08-31T07:38:02.433Z,23.5
2018-08-31T07:38:52.247Z,23.5
2018-08-31T07:39:42.067Z,23.5
2018-08-31T07:40:31.195Z,23.5
2018-08-31T07:41:22.304Z,23.5
2018-08-31T07:42:12.526Z,23.5
2018-08-31T07:43:02.302Z,23.5
2018-08-31T07:43:52.827Z,23.6
2018-08-31T07:44:42.369Z,23.5
2018-08-31T07:45:32.381Z,23.5
2018-08-31T07:46:22.150Z,23.6
2018-08-31T07:47:12.909Z,23.6
2018-08-31T07:48:02.495Z,23.6
2018-08-31T07:48:52.408Z,23.6
2018-08-31T07:49:42.491Z,23.6
2018-08-31T07:50:32.872Z,23.6
2018-08-31T07:51:22.308Z,23.6
2018-08-31T07:52:13.182Z,23.6
2018-08-31T07:53:03.846Z,23.6
2018-08-31T07:53:54.780Z,23.6
2018-08-31T07:54:43.891Z,23.6
2018-08-31T07:55:33.772Z,23.6
2018-08-31T07:56:23.319Z,23.6
2018-08-31T07:57:13.606Z,23.6
2018-08-31T07:58:03.397Z,23.6
2018-08-31T07:58:52.956Z,23.6
2018-08-31T07:59:44.025Z,23.6
2018-08-31T08:00:33.054Z,23.6
2018-08-31T08:01:23.978Z,23.6
2018-08-31T08:02:13.388Z,23.6
2018-08-31T08:03:03.004Z,23.6
2018-08-31T08:03:53.321Z,23.6
2018-08-31T08:04:42.800Z,23.6
2018-08-31T08:05:34.884Z,23.6
2018-08-31T08:06:23.846Z,23.6
2018-08-31T08:07:14.542Z,23.6
2018-08-31T08:08:03.612Z,23.6
2018-08-31T08:08:54.223Z,23.6
2018-08-31T08:09:43.243Z,23.6
2018-08-31T08:10:34.066Z,23.6
2018-08-31T08:11:23.558Z,23.6
2018-08-31T08:12:14.426Z,23.6
2018-08-31T08:13:04.599Z,23.6
2018-08-31T08:13:54.350Z,23.6
2018-08-31T08:14:44.893Z,23.6
2018-08-31T08:15:35.062Z,23.6
2018-08-31T08:16:25.303Z,23.6
2018-08-31T08:17:13.843Z,23.6
2018-08-31T08:18:04.650Z,23.6
2018-08-31T08:18:54.779Z,23.6
2018-08-31T08:19:46.326Z,23.6
2018-08-31T08:20:34.979Z,23.6
2018-08-31T08:21:25.731Z,23.6
2018-08-31T08:22:15.293Z,23.6
2018-08-31T08:23:05.585Z,23.6
2018-08-31T08:23:54.797Z,23.6
2018-08-31T08:24:44.945Z,23.6
2018-08-31T08:25:35.802Z,23.6
2018-08-31T08:26:26.102Z,23.6
2018-08-31T08:27:16.228Z,23.6
2018-08-31T08:28:05.750Z,23.6
2018-08-31T08:28:55.497Z,23.6
2018-08-31T08:29:46.211Z,23.6
2018-08-31T08:30:36.220Z,23.6
2018-08-31T08:31:26.025Z,23.6
2018-08-31T08:32:15.774Z,23.6
2018-08-31T08:33:05.637Z,23.6
2018-08-31T08:33:55.169Z,23.6
2018-08-31T08:34:45.977Z,23.6
2018-08-31T08:35:36.899Z,23.6
2018-08-31T08:36:26.392Z,23.6
2018-08-31T08:37:16.491Z,23.6
2018-08-31T08:38:06.020Z,23.6
2018-08-31T08:38:56.399Z,23.6
2018-08-31T08:39:46.879Z,23.6
2018-08-31T08:40:36.736Z,23.6
2018-08-31T08:41:27.067Z,23.6
2018-08-31T08:42:18.331Z,23.7
2018-08-31T08:43:07.439Z,23.6
2018-08-31T08:43:57.218Z,23.6
2018-08-31T08:44:47.011Z,23.7
2018-08-31T08:45:37.698Z,23.7
2018-08-31T08:46:27.139Z,23.7
2018-08-31T08:47:17.546Z,23.7
2018-08-31T08:48:07.204Z,23.7
2018-08-31T08:48:57.216Z,23.7
2018-08-31T08:49:47.971Z,23.7
2018-08-31T08:50:36.961Z,23.7
2018-08-31T08:51:27.288Z,23.7
2018-08-31T08:52:17.296Z,23.7
2018-08-31T08:53:07.913Z,23.7
2018-08-31T08:53:58.814Z,23.7
2018-08-31T08:54:48.301Z,23.7
2018-08-31T08:55:37.885Z,23.7
2018-08-31T08:56:27.913Z,23.7
2018-08-31T08:57:18.277Z,23.7
2018-08-31T08:58:08.067Z,23.7
2018-08-31T09:14:51.091Z,23.7
2018-08-31T09:15:39.851Z,23.7
2018-08-31T09:16:30.539Z,23.7
2018-08-31T09:17:21.079Z,23.7
2018-08-31T09:18:10.652Z,23.7
2018-08-31T09:19:00.689Z,23.7
2018-08-31T09:19:51.537Z,23.7
2018-08-31T09:20:41.349Z,23.7
2018-08-31T09:21:31.407Z,23.7
2018-08-31T09:22:21.237Z,23.7
2018-08-31T09:23:11.267Z,23.7
2018-08-31T09:24:00.818Z,23.7
2018-08-31T09:24:52.726Z,23.7
2018-08-31T09:25:41.518Z,23.7
2018-08-31T09:26:31.796Z,23.7
2018-08-31T09:27:21.679Z,23.8
2018-08-31T09:28:11.635Z,23.7
2018-08-31T09:29:01.692Z,23.8
2018-08-31T09:29:51.772Z,23.8
2018-08-31T09:30:41.848Z,23.7
2018-08-31T09:31:32.492Z,23.7
2018-08-31T09:32:21.744Z,23.8
2018-08-31T09:33:11.563Z,23.8
2018-08-31T09:34:02.375Z,23.8
2018-08-31T09:34:52.430Z,23.8
2018-08-31T09:35:42.486Z,23.8
2018-08-31T09:36:31.732Z,23.8
2018-08-31T09:37:21.839Z,23.8
2018-08-31T09:38:12.559Z,23.8
2018-08-31T09:39:01.652Z,23.8
2018-08-31T09:39:53.381Z,23.8
2018-08-31T09:40:42.817Z,23.8
2018-08-31T09:41:33.035Z,23.8
2018-08-31T09:42:23.049Z,23.8
2018-08-31T09:43:12.630Z,23.8
2018-08-31T09:44:03.763Z,23.8
2018-08-31T09:44:52.467Z,23.8
2018-08-31T09:45:42.446Z,23.8
2018-08-31T09:46:33.339Z,23.8
2018-08-31T09:47:22.878Z,23.8
2018-08-31T09:48:13.444Z,23.8
2018-08-31T09:49:03.277Z,23.8
2018-08-31T09:49:54.816Z,23.8
2018-08-31T09:50:43.936Z,23.8
2018-08-31T09:51:33.466Z,23.8
2018-08-31T09:52:23.829Z,23.8
2018-08-31T09:53:13.919Z,23.8
2018-08-31T09:54:03.666Z,23.8
2018-08-31T09:54:52.641Z,23.8
2018-08-31T09:55:44.561Z,23.8
2018-08-31T09:56:33.006Z,23.8
2018-08-31T09:58:24.726Z,23.8
2018-08-31T09:58:52.439Z,23.8
2018-08-31T09:59:25.478Z,23.8
2018-08-31T10:00:16.331Z,23.8
2018-08-31T10:01:07.143Z,23.8
2018-08-31T10:01:56.393Z,23.8
2018-08-31T10:02:46.267Z,23.8
2018-08-31T10:03:36.291Z,23.8
2018-08-31T10:04:26.943Z,23.8
2018-08-31T10:05:17.333Z,23.8
2018-08-31T10:06:06.206Z,23.8
2018-08-31T10:06:55.960Z,23.8
2018-08-31T10:07:46.607Z,23.8
2018-08-31T10:08:36.977Z,23.8
2018-08-31T10:09:27.178Z,23.8
2018-08-31T10:10:17.340Z,23.8
2018-08-31T10:11:07.413Z,23.8
2018-08-31T10:11:56.637Z,23.8
2018-08-31T10:12:47.575Z,23.8
2018-08-31T10:13:37.615Z,23.8
2018-08-31T10:14:27.725Z,23.8
2018-08-31T10:15:17.487Z,23.8
2018-08-31T10:16:07.772Z,23.8
2018-08-31T10:16:57.959Z,23.8
2018-08-31T10:17:47.692Z,23.8
2018-08-31T10:18:37.602Z,23.8
2018-08-31T10:19:28.472Z,23.8
2018-08-31T10:20:17.895Z,23.8
2018-08-31T10:21:08.424Z,23.8
2018-08-31T10:21:58.030Z,23.8
2018-08-31T10:22:48.092Z,23.8
2018-08-31T10:23:38.446Z,23.8
2018-08-31T10:24:28.709Z,23.8
2018-08-31T10:25:18.539Z,23.8
2018-08-31T10:26:09.165Z,23.8
2018-08-31T10:26:57.709Z,23.8
2018-08-31T10:27:48.729Z,23.8
2018-08-31T10:28:38.334Z,23.8
2018-08-31T10:29:28.886Z,23.8
2018-08-31T10:30:19.192Z,23.8
2018-08-31T10:31:08.898Z,23.8
2018-08-31T10:31:58.983Z,23.8
2018-08-31T10:32:49.096Z,23.8
2018-08-31T10:33:38.624Z,23.8
2018-08-31T10:34:29.025Z,23.8
2018-08-31T10:35:18.754Z,23.8
2018-08-31T10:36:09.611Z,23.8
2018-08-31T10:36:58.878Z,23.8
2018-08-31T10:37:49.585Z,23.8
2018-08-31T10:38:39.583Z,23.8
2018-08-31T10:39:29.328Z,23.8
2018-08-31T10:40:19.623Z,23.8
2018-08-31T10:41:09.497Z,23.8
2018-08-31T10:41:59.538Z,23.8
2018-08-31T10:42:48.771Z,23.8
2018-08-31T10:43:38.276Z,23.8
2018-08-31T10:44:29.405Z,23.8
2018-08-31T10:45:19.816Z,23.8
2018-08-31T10:46:09.599Z,23.8
2018-08-31T10:47:00.765Z,23.8
2018-08-31T10:47:50.303Z,23.8
2018-08-31T10:48:40.109Z,23.8
2018-08-31T10:49:30.127Z,23.8
2018-08-31T10:50:20.207Z,23.8
2018-08-31T10:51:10.240Z,23.8
2018-08-31T10:52:00.588Z,23.8
2018-08-31T10:52:50.147Z,23.8
2018-08-31T10:53:39.649Z,23.8
2018-08-31T10:54:31.084Z,23.8
2018-08-31T10:55:20.895Z,23.8
2018-08-31T10:56:10.669Z,23.8
2018-08-31T10:57:00.779Z,23.8
2018-08-31T10:57:50.509Z,23.8
2018-08-31T10:58:40.851Z,23.8
2018-08-31T10:59:31.292Z,23.8
2018-08-31T11:00:20.527Z,23.8
2018-08-31T11:01:10.898Z,23.8
2018-08-31T11:02:01.408Z,23.8
2018-08-31T11:02:51.484Z,23.8
2018-08-31T11:03:42.157Z,23.8
2018-08-31T11:04:31.057Z,23.8
2018-08-31T11:05:20.293Z,23.8
2018-08-31T11:06:11.747Z,23.8
2018-08-31T11:07:01.553Z,23.8
2018-08-31T11:07:51.914Z,23.8
2018-08-31T11:08:42.183Z,23.8
2018-08-31T11:09:31.479Z,23.8
2018-08-31T11:10:22.049Z,23.8
2018-08-31T11:11:11.595Z,23.8
2018-08-31T11:12:01.871Z,23.8
2018-08-31T11:12:54.155Z,23.8
2018-08-31T11:13:42.026Z,23.8
2018-08-31T11:14:32.139Z,23.8
2018-08-31T11:15:24.399Z,23.8
2018-08-31T11:16:12.490Z,23.8
2018-08-31T11:17:02.623Z,23.8
2018-08-31T11:17:52.328Z,23.8
2018-08-31T11:18:42.943Z,23.8
2018-08-31T11:19:31.896Z,23.8
2018-08-31T11:20:22.003Z,23.8
2018-08-31T11:21:12.665Z,23.8
2018-08-31T11:22:02.446Z,23.8
2018-08-31T11:22:53.053Z,23.8
2018-08-31T11:23:43.123Z,23.8
2018-08-31T11:24:33.182Z,23.8
2018-08-31T11:25:22.683Z,23.8
2018-08-31T11:26:12.437Z,23.8
2018-08-31T11:27:02.775Z,23.8
2018-08-31T11:27:53.557Z,23.8
2018-08-31T11:28:42.905Z,23.8
2018-08-31T11:29:33.288Z,23.8
2018-08-31T11:30:23.632Z,23.8
2018-08-31T11:31:13.110Z,23.8
2018-08-31T11:32:03.742Z,23.8
2018-08-31T11:32:53.507Z,23.8
2018-08-31T11:33:43.871Z,23.8
2018-08-31T11:35:04.677Z,23.8
2018-08-31T11:35:52.747Z,23.8
2018-08-31T11:36:31.899Z,23.9
2018-08-31T11:37:18.541Z,23.8
2018-08-31T11:37:53.905Z,23.8
2018-08-31T11:39:00.700Z,23.9
2018-08-31T11:39:49.113Z,23.8
2018-08-31T11:40:24.391Z,23.9
2018-08-31T11:41:14.540Z,23.8
2018-08-31T11:42:04.579Z,23.8
2018-08-31T11:43:23.933Z,23.8
2018-08-31T11:43:58.849Z,23.9
2018-08-31T11:44:34.686Z,23.8
2018-08-31T11:45:24.476Z,23.9
2018-08-31T11:46:14.619Z,23.8
2018-08-31T11:47:04.627Z,23.9
2018-08-31T11:48:09.845Z,23.8
2018-08-31T11:48:45.295Z,23.9
2018-08-31T11:49:34.789Z,23.9
2018-08-31T11:50:24.323Z,23.9
2018-08-31T11:51:14.668Z,23.8
2018-08-31T11:52:05.033Z,23.8
2018-08-31T11:52:55.374Z,23.9
2018-08-31T11:53:44.344Z,23.9
2018-08-31T11:54:35.533Z,23.9
2018-08-31T11:55:27.047Z,23.9
2018-08-31T11:56:15.318Z,23.9
2018-08-31T11:57:04.693Z,23.9
2018-08-31T11:57:55.529Z,23.9
2018-08-31T11:58:45.596Z,23.9